sensor_id;sensor_type;location;lat;lon;timestamp;P1;durP1;ratioP1;P2;durP2;ratioP2
39266;SDS011;24967;51.154;13.812;2023-07-08T01:16:09;4.35;;;4.05;;
39266;SDS011;24967;51.154;13.812;2023-07-08T01:18:37;4.22;;;3.92;;
39266;SDS011;24967;51.154;13.812;2023-07-08T01:21:04;5.22;;;4.57;;
39266;SDS011;24967;51.154;13.812;2023-07-08T01:23:53;4.18;;;3.60;;
39266;SDS011;24967;51.154;13.812;2023-07-08T01:26:21;4.75;;;4.35;;
39266;SDS011;24967;51.154;13.812;2023-07-08T01:28:50;4.97;;;4.13;;
39266;SDS011;24967;51.154;13.812;2023-07-08T01:31:17;4.35;;;3.95;;
39266;SDS011;24967;51.154;13.812;2023-07-08T01:33:44;4.28;;;3.97;;
39266;SDS011;24967;51.154;13.812;2023-07-08T01:36:11;4.90;;;4.22;;
39266;SDS011;24967;51.154;13.812;2023-07-08T01:38:38;5.07;;;3.95;;
39266;SDS011;24967;51.154;13.812;2023-07-08T01:41:10;3.67;;;3.40;;
39266;SDS011;24967;51.154;13.812;2023-07-08T01:43:37;3.97;;;3.67;;
39266;SDS011;24967;51.154;13.812;2023-07-08T01:46:04;3.50;;;3.20;;
39266;SDS011;24967;51.154;13.812;2023-07-08T01:48:40;4.80;;;3.75;;
39266;SDS011;24967;51.154;13.812;2023-07-08T01:51:11;6.10;;;3.90;;
39266;SDS011;24967;51.154;13.812;2023-07-08T01:53:38;4.03;;;3.63;;
39266;SDS011;24967;51.154;13.812;2023-07-08T01:56:10;4.82;;;4.20;;
39266;SDS011;24967;51.154;13.812;2023-07-08T01:58:38;4.40;;;3.75;;
39266;SDS011;24967;51.154;13.812;2023-07-08T02:01:05;3.97;;;3.65;;
39266;SDS011;24967;51.154;13.812;2023-07-08T02:03:32;4.57;;;4.18;;
39266;SDS011;24967;51.154;13.812;2023-07-08T02:05:59;4.05;;;3.55;;
39266;SDS011;24967;51.154;13.812;2023-07-08T02:08:26;4.18;;;3.88;;
39266;SDS011;24967;51.154;13.812;2023-07-08T02:10:52;4.13;;;3.75;;
39266;SDS011;24967;51.154;13.812;2023-07-08T02:13:22;4.30;;;3.90;;
39266;SDS011;24967;51.154;13.812;2023-07-08T02:15:49;3.55;;;3.25;;
39266;SDS011;24967;51.154;13.812;2023-07-08T02:18:16;4.10;;;3.72;;
39266;SDS011;24967;51.154;13.812;2023-07-08T02:20:44;3.90;;;3.63;;
39266;SDS011;24967;51.154;13.812;2023-07-08T02:23:10;3.88;;;3.58;;
39266;SDS011;24967;51.154;13.812;2023-07-08T02:25:37;4.05;;;3.25;;
39266;SDS011;24967;51.154;13.812;2023-07-08T02:28:03;3.30;;;3.15;;
39266;SDS011;24967;51.154;13.812;2023-07-08T02:30:31;3.83;;;3.50;;
39266;SDS011;24967;51.154;13.812;2023-07-08T02:32:57;4.60;;;3.50;;
39266;SDS011;24967;51.154;13.812;2023-07-08T02:35:24;4.35;;;3.95;;
39266;SDS011;24967;51.154;13.812;2023-07-08T02:37:52;3.65;;;3.35;;
39266;SDS011;24967;51.154;13.812;2023-07-08T02:40:19;3.78;;;3.50;;
39266;SDS011;24967;51.154;13.812;2023-07-08T02:42:45;3.38;;;3.00;;
39266;SDS011;24967;51.154;13.812;2023-07-08T02:45:12;7.30;;;3.47;;
39266;SDS011;24967;51.154;13.812;2023-07-08T02:47:40;3.63;;;3.33;;
39266;SDS011;24967;51.154;13.812;2023-07-08T02:50:07;5.03;;;3.50;;
39266;SDS011;24967;51.154;13.812;2023-07-08T02:52:34;5.57;;;3.42;;
39266;SDS011;24967;51.154;13.812;2023-07-08T02:55:01;6.25;;;3.60;;
39266;SDS011;24967;51.154;13.812;2023-07-08T02:57:27;4.22;;;3.47;;
39266;SDS011;24967;51.154;13.812;2023-07-08T02:59:53;3.72;;;3.42;;
39266;SDS011;24967;51.154;13.812;2023-07-08T03:02:20;4.75;;;3.58;;
39266;SDS011;24967;51.154;13.812;2023-07-08T03:04:48;3.92;;;3.67;;
39266;SDS011;24967;51.154;13.812;2023-07-08T03:07:15;4.07;;;3.67;;
39266;SDS011;24967;51.154;13.812;2023-07-08T03:09:42;3.85;;;3.38;;
39266;SDS011;24967;51.154;13.812;2023-07-08T03:12:10;3.97;;;3.45;;
39266;SDS011;24967;51.154;13.812;2023-07-08T03:14:37;3.35;;;3.10;;
39266;SDS011;24967;51.154;13.812;2023-07-08T03:17:04;5.45;;;3.97;;
39266;SDS011;24967;51.154;13.812;2023-07-08T03:19:31;3.67;;;3.20;;
39266;SDS011;24967;51.154;13.812;2023-07-08T03:21:59;3.25;;;3.00;;
39266;SDS011;24967;51.154;13.812;2023-07-08T03:24:27;5.85;;;3.50;;
39266;SDS011;24967;51.154;13.812;2023-07-08T03:26:54;3.35;;;3.10;;
39266;SDS011;24967;51.154;13.812;2023-07-08T03:29:24;3.53;;;3.25;;
39266;SDS011;24967;51.154;13.812;2023-07-08T03:31:51;3.50;;;3.20;;
39266;SDS011;24967;51.154;13.812;2023-07-08T03:34:17;4.75;;;3.40;;
39266;SDS011;24967;51.154;13.812;2023-07-08T03:36:44;5.10;;;3.10;;
39266;SDS011;24967;51.154;13.812;2023-07-08T03:39:15;4.00;;;3.03;;
39266;SDS011;24967;51.154;13.812;2023-07-08T03:41:42;4.18;;;3.17;;
39266;SDS011;24967;51.154;13.812;2023-07-08T03:44:09;3.75;;;3.45;;
39266;SDS011;24967;51.154;13.812;2023-07-08T03:46:35;4.72;;;3.38;;
39266;SDS011;24967;51.154;13.812;2023-07-08T03:49:02;3.03;;;2.83;;
39266;SDS011;24967;51.154;13.812;2023-07-08T03:51:29;3.15;;;2.85;;
39266;SDS011;24967;51.154;13.812;2023-07-08T03:53:57;4.03;;;3.58;;
39266;SDS011;24967;51.154;13.812;2023-07-08T03:56:26;3.28;;;3.08;;
39266;SDS011;24967;51.154;13.812;2023-07-08T03:58:52;4.70;;;3.50;;
39266;SDS011;24967;51.154;13.812;2023-07-08T04:01:20;3.50;;;3.25;;
39266;SDS011;24967;51.154;13.812;2023-07-08T04:03:49;3.22;;;3.03;;
39266;SDS011;24967;51.154;13.812;2023-07-08T04:06:16;3.15;;;2.95;;
39266;SDS011;24967;51.154;13.812;2023-07-08T04:08:42;5.22;;;3.22;;
39266;SDS011;24967;51.154;13.812;2023-07-08T04:11:09;3.05;;;2.85;;
39266;SDS011;24967;51.154;13.812;2023-07-08T04:13:39;5.35;;;3.58;;
39266;SDS011;24967;51.154;13.812;2023-07-08T04:16:05;3.83;;;3.33;;
39266;SDS011;24967;51.154;13.812;2023-07-08T04:18:33;3.40;;;3.10;;
39266;SDS011;24967;51.154;13.812;2023-07-08T04:21:01;3.63;;;3.05;;
39266;SDS011;24967;51.154;13.812;2023-07-08T04:23:27;3.28;;;3.05;;
39266;SDS011;24967;51.154;13.812;2023-07-08T04:25:54;5.50;;;3.30;;
39266;SDS011;24967;51.154;13.812;2023-07-08T04:28:22;3.50;;;3.20;;
39266;SDS011;24967;51.154;13.812;2023-07-08T04:30:50;3.33;;;3.08;;
39266;SDS011;24967;51.154;13.812;2023-07-08T04:33:17;3.42;;;3.20;;
39266;SDS011;24967;51.154;13.812;2023-07-08T04:35:44;3.60;;;2.80;;
39266;SDS011;24967;51.154;13.812;2023-07-08T04:38:12;3.30;;;3.03;;
39266;SDS011;24967;51.154;13.812;2023-07-08T04:40:42;4.80;;;2.92;;
39266;SDS011;24967;51.154;13.812;2023-07-08T04:43:09;5.05;;;3.20;;
39266;SDS011;24967;51.154;13.812;2023-07-08T04:45:37;3.35;;;3.05;;
39266;SDS011;24967;51.154;13.812;2023-07-08T04:48:05;3.20;;;2.90;;
39266;SDS011;24967;51.154;13.812;2023-07-08T04:50:37;3.35;;;3.10;;
39266;SDS011;24967;51.154;13.812;2023-07-08T04:53:05;3.08;;;2.88;;
39266;SDS011;24967;51.154;13.812;2023-07-08T04:55:31;3.67;;;2.85;;
39266;SDS011;24967;51.154;13.812;2023-07-08T04:57:58;2.88;;;2.60;;
39266;SDS011;24967;51.154;13.812;2023-07-08T05:00:24;2.97;;;2.78;;
39266;SDS011;24967;51.154;13.812;2023-07-08T05:02:50;3.92;;;2.80;;
39266;SDS011;24967;51.154;13.812;2023-07-08T05:05:20;5.38;;;3.05;;
39266;SDS011;24967;51.154;13.812;2023-07-08T05:07:46;3.38;;;2.30;;
39266;SDS011;24967;51.154;13.812;2023-07-08T05:10:14;3.97;;;2.72;;
39266;SDS011;24967;51.154;13.812;2023-07-08T05:12:41;3.03;;;2.75;;
39266;SDS011;24967;51.154;13.812;2023-07-08T05:15:07;3.08;;;2.88;;
39266;SDS011;24967;51.154;13.812;2023-07-08T05:17:36;3.45;;;2.50;;
39266;SDS011;24967;51.154;13.812;2023-07-08T05:20:04;2.90;;;2.55;;
39266;SDS011;24967;51.154;13.812;2023-07-08T05:22:34;3.22;;;2.72;;
39266;SDS011;24967;51.154;13.812;2023-07-08T05:25:00;4.22;;;2.50;;
39266;SDS011;24967;51.154;13.812;2023-07-08T05:27:27;3.13;;;2.83;;
39266;SDS011;24967;51.154;13.812;2023-07-08T05:29:54;2.72;;;2.53;;
39266;SDS011;24967;51.154;13.812;2023-07-08T05:32:20;3.60;;;2.60;;
39266;SDS011;24967;51.154;13.812;2023-07-08T05:34:47;2.75;;;2.55;;
39266;SDS011;24967;51.154;13.812;2023-07-08T05:37:14;3.05;;;2.63;;
39266;SDS011;24967;51.154;13.812;2023-07-08T05:39:45;4.43;;;2.45;;
39266;SDS011;24967;51.154;13.812;2023-07-08T05:42:11;2.38;;;2.25;;
39266;SDS011;24967;51.154;13.812;2023-07-08T05:44:38;3.50;;;2.35;;
39266;SDS011;24967;51.154;13.812;2023-07-08T05:47:04;2.88;;;2.67;;
39266;SDS011;24967;51.154;13.812;2023-07-08T05:49:30;2.80;;;2.60;;
39266;SDS011;24967;51.154;13.812;2023-07-08T05:51:57;2.40;;;2.20;;
39266;SDS011;24967;51.154;13.812;2023-07-08T05:54:23;3.85;;;2.30;;
39266;SDS011;24967;51.154;13.812;2023-07-08T05:56:51;4.68;;;2.40;;
39266;SDS011;24967;51.154;13.812;2023-07-08T05:59:18;2.63;;;2.35;;
39266;SDS011;24967;51.154;13.812;2023-07-08T06:01:44;4.03;;;2.60;;
39266;SDS011;24967;51.154;13.812;2023-07-08T06:04:10;4.20;;;2.63;;
39266;SDS011;24967;51.154;13.812;2023-07-08T06:06:37;2.72;;;2.50;;
39266;SDS011;24967;51.154;13.812;2023-07-08T06:09:03;2.45;;;2.25;;
39266;SDS011;24967;51.154;13.812;2023-07-08T06:11:30;3.30;;;1.90;;
39266;SDS011;24967;51.154;13.812;2023-07-08T06:13:57;4.15;;;2.47;;
39266;SDS011;24967;51.154;13.812;2023-07-08T06:16:24;4.05;;;2.47;;
39266;SDS011;24967;51.154;13.812;2023-07-08T06:18:50;4.68;;;2.38;;
39266;SDS011;24967;51.154;13.812;2023-07-08T06:21:16;2.53;;;2.30;;
39266;SDS011;24967;51.154;13.812;2023-07-08T06:23:43;2.33;;;2.22;;
39266;SDS011;24967;51.154;13.812;2023-07-08T06:26:09;2.63;;;2.22;;
39266;SDS011;24967;51.154;13.812;2023-07-08T06:28:36;2.50;;;2.30;;
39266;SDS011;24967;51.154;13.812;2023-07-08T06:31:03;3.20;;;2.70;;
39266;SDS011;24967;51.154;13.812;2023-07-08T06:33:30;4.07;;;2.47;;
39266;SDS011;24967;51.154;13.812;2023-07-08T06:35:56;3.15;;;2.50;;
39266;SDS011;24967;51.154;13.812;2023-07-08T06:38:22;3.70;;;2.50;;
39266;SDS011;24967;51.154;13.812;2023-07-08T06:40:49;3.70;;;2.42;;
39266;SDS011;24967;51.154;13.812;2023-07-08T06:43:15;2.67;;;2.47;;
39266;SDS011;24967;51.154;13.812;2023-07-08T06:45:42;2.75;;;2.55;;
39266;SDS011;24967;51.154;13.812;2023-07-08T06:48:11;2.20;;;2.10;;
39266;SDS011;24967;51.154;13.812;2023-07-08T06:50:37;2.35;;;2.25;;
39266;SDS011;24967;51.154;13.812;2023-07-08T06:53:04;2.50;;;2.30;;
39266;SDS011;24967;51.154;13.812;2023-07-08T06:55:30;2.45;;;2.25;;
39266;SDS011;24967;51.154;13.812;2023-07-08T06:57:56;2.90;;;2.67;;
39266;SDS011;24967;51.154;13.812;2023-07-08T07:00:23;3.13;;;2.78;;
39266;SDS011;24967;51.154;13.812;2023-07-08T07:02:49;2.28;;;2.17;;
39266;SDS011;24967;51.154;13.812;2023-07-08T07:05:17;2.50;;;2.30;;
39266;SDS011;24967;51.154;13.812;2023-07-08T07:07:43;3.03;;;2.33;;
39266;SDS011;24967;51.154;13.812;2023-07-08T07:10:10;2.97;;;2.58;;
39266;SDS011;24967;51.154;13.812;2023-07-08T07:12:36;2.97;;;2.72;;
39266;SDS011;24967;51.154;13.812;2023-07-08T07:15:03;4.50;;;2.55;;
39266;SDS011;24967;51.154;13.812;2023-07-08T07:17:31;3.45;;;2.33;;
39266;SDS011;24967;51.154;13.812;2023-07-08T07:19:57;4.40;;;2.60;;
39266;SDS011;24967;51.154;13.812;2023-07-08T07:22:25;4.07;;;2.60;;
39266;SDS011;24967;51.154;13.812;2023-07-08T07:24:52;2.50;;;2.28;;
39266;SDS011;24967;51.154;13.812;2023-07-08T07:27:18;2.50;;;2.30;;
39266;SDS011;24967;51.154;13.812;2023-07-08T07:29:45;3.90;;;2.75;;
39266;SDS011;24967;51.154;13.812;2023-07-08T07:32:13;3.28;;;2.15;;
39266;SDS011;24967;51.154;13.812;2023-07-08T07:34:41;2.50;;;2.22;;
39266;SDS011;24967;51.154;13.812;2023-07-08T07:37:09;3.13;;;2.58;;
39266;SDS011;24967;51.154;13.812;2023-07-08T07:39:39;2.58;;;2.47;;
39266;SDS011;24967;51.154;13.812;2023-07-08T07:42:05;2.40;;;2.20;;
39266;SDS011;24967;51.154;13.812;2023-07-08T07:44:32;2.90;;;2.50;;
39266;SDS011;24967;51.154;13.812;2023-07-08T07:46:59;2.85;;;2.45;;
39266;SDS011;24967;51.154;13.812;2023-07-08T07:49:25;4.05;;;2.55;;
39266;SDS011;24967;51.154;13.812;2023-07-08T07:51:51;3.40;;;2.33;;
39266;SDS011;24967;51.154;13.812;2023-07-08T07:54:18;2.88;;;2.67;;
39266;SDS011;24967;51.154;13.812;2023-07-08T07:56:46;2.50;;;2.30;;
39266;SDS011;24967;51.154;13.812;2023-07-08T07:59:12;4.82;;;2.72;;
39266;SDS011;24967;51.154;13.812;2023-07-08T08:01:39;3.10;;;2.67;;
39266;SDS011;24967;51.154;13.812;2023-07-08T08:04:07;3.13;;;2.50;;
39266;SDS011;24967;51.154;13.812;2023-07-08T08:06:33;2.97;;;2.70;;
39266;SDS011;24967;51.154;13.812;2023-07-08T08:08:59;2.78;;;2.60;;
39266;SDS011;24967;51.154;13.812;2023-07-08T08:11:26;3.00;;;2.78;;
39266;SDS011;24967;51.154;13.812;2023-07-08T08:13:54;3.20;;;3.00;;
39266;SDS011;24967;51.154;13.812;2023-07-08T08:16:20;2.60;;;2.40;;
39266;SDS011;24967;51.154;13.812;2023-07-08T08:18:47;4.30;;;2.70;;
39266;SDS011;24967;51.154;13.812;2023-07-08T08:21:13;3.25;;;2.60;;
39266;SDS011;24967;51.154;13.812;2023-07-08T08:23:40;3.05;;;2.75;;
39266;SDS011;24967;51.154;13.812;2023-07-08T08:26:06;2.85;;;2.63;;
39266;SDS011;24967;51.154;13.812;2023-07-08T08:28:33;3.55;;;3.05;;
39266;SDS011;24967;51.154;13.812;2023-07-08T08:31:00;3.38;;;3.05;;
39266;SDS011;24967;51.154;13.812;2023-07-08T08:33:27;3.78;;;2.78;;
39266;SDS011;24967;51.154;13.812;2023-07-08T08:35:53;3.67;;;3.10;;
39266;SDS011;24967;51.154;13.812;2023-07-08T08:38:20;5.00;;;3.03;;
39266;SDS011;24967;51.154;13.812;2023-07-08T08:40:46;2.97;;;2.80;;
39266;SDS011;24967;51.154;13.812;2023-07-08T08:43:13;3.33;;;3.03;;
39266;SDS011;24967;51.154;13.812;2023-07-08T08:45:45;3.05;;;2.85;;
39266;SDS011;24967;51.154;13.812;2023-07-08T08:48:20;3.30;;;3.10;;
39266;SDS011;24967;51.154;13.812;2023-07-08T08:50:49;3.20;;;3.00;;
39266;SDS011;24967;51.154;13.812;2023-07-08T08:53:19;3.40;;;3.10;;
39266;SDS011;24967;51.154;13.812;2023-07-08T08:55:49;2.78;;;2.67;;
39266;SDS011;24967;51.154;13.812;2023-07-08T08:58:23;2.97;;;2.80;;
39266;SDS011;24967;51.154;13.812;2023-07-08T09:00:58;3.15;;;2.78;;
39266;SDS011;24967;51.154;13.812;2023-07-08T09:06:00;2.90;;;2.72;;
39266;SDS011;24967;51.154;13.812;2023-07-08T09:08:34;3.28;;;2.97;;
39266;SDS011;24967;51.154;13.812;2023-07-08T09:11:13;3.30;;;2.97;;
39266;SDS011;24967;51.154;13.812;2023-07-08T09:13:49;4.55;;;3.25;;
39266;SDS011;24967;51.154;13.812;2023-07-08T09:16:18;4.30;;;2.80;;
39266;SDS011;24967;51.154;13.812;2023-07-08T09:18:56;2.75;;;2.60;;
39266;SDS011;24967;51.154;13.812;2023-07-08T09:21:26;3.10;;;2.90;;
39266;SDS011;24967;51.154;13.812;2023-07-08T09:24:01;3.08;;;2.75;;
39266;SDS011;24967;51.154;13.812;2023-07-08T09:26:34;2.80;;;2.60;;
39266;SDS011;24967;51.154;13.812;2023-07-08T09:29:01;2.72;;;2.60;;
39266;SDS011;24967;51.154;13.812;2023-07-08T09:31:37;2.92;;;2.63;;
39266;SDS011;24967;51.154;13.812;2023-07-08T09:34:09;3.00;;;2.55;;
39266;SDS011;24967;51.154;13.812;2023-07-08T09:36:38;2.85;;;2.55;;
39266;SDS011;24967;51.154;13.812;2023-07-08T09:39:09;2.28;;;2.17;;
39266;SDS011;24967;51.154;13.812;2023-07-08T09:41:37;3.53;;;2.50;;
39266;SDS011;24967;51.154;13.812;2023-07-08T09:44:05;3.47;;;2.55;;
39266;SDS011;24967;51.154;13.812;2023-07-08T09:46:39;4.43;;;2.58;;
39266;SDS011;24967;51.154;13.812;2023-07-08T09:49:14;2.70;;;2.40;;
39266;SDS011;24967;51.154;13.812;2023-07-08T09:51:43;2.67;;;2.50;;
39266;SDS011;24967;51.154;13.812;2023-07-08T09:54:10;2.53;;;2.33;;
39266;SDS011;24967;51.154;13.812;2023-07-08T09:56:38;2.65;;;2.50;;
39266;SDS011;24967;51.154;13.812;2023-07-08T09:59:09;2.95;;;2.75;;
39266;SDS011;24967;51.154;13.812;2023-07-08T10:01:38;3.60;;;2.85;;
39266;SDS011;24967;51.154;13.812;2023-07-08T10:04:07;2.55;;;2.42;;
39266;SDS011;24967;51.154;13.812;2023-07-08T10:06:34;2.83;;;2.65;;
39266;SDS011;24967;51.154;13.812;2023-07-08T10:09:02;2.92;;;2.60;;
39266;SDS011;24967;51.154;13.812;2023-07-08T10:11:31;3.60;;;2.90;;
39266;SDS011;24967;51.154;13.812;2023-07-08T10:16:31;2.90;;;2.70;;
39266;SDS011;24967;51.154;13.812;2023-07-08T10:18:59;2.87;;;2.67;;
39266;SDS011;24967;51.154;13.812;2023-07-08T10:21:29;2.97;;;2.80;;
39266;SDS011;24967;51.154;13.812;2023-07-08T10:24:09;2.72;;;2.53;;
39266;SDS011;24967;51.154;13.812;2023-07-08T10:26:52;3.30;;;2.28;;
39266;SDS011;24967;51.154;13.812;2023-07-08T10:29:24;2.53;;;2.42;;
39266;SDS011;24967;51.154;13.812;2023-07-08T10:32:00;2.38;;;2.17;;
39266;SDS011;24967;51.154;13.812;2023-07-08T10:34:36;2.38;;;2.28;;
39266;SDS011;24967;51.154;13.812;2023-07-08T10:37:09;2.88;;;2.50;;
39266;SDS011;24967;51.154;13.812;2023-07-08T10:39:55;3.00;;;2.80;;
39266;SDS011;24967;51.154;13.812;2023-07-08T10:42:42;2.70;;;2.60;;
39266;SDS011;24967;51.154;13.812;2023-07-08T10:45:19;3.38;;;2.60;;
39266;SDS011;24967;51.154;13.812;2023-07-08T10:48:00;3.28;;;2.92;;
39266;SDS011;24967;51.154;13.812;2023-07-08T10:50:47;3.90;;;2.95;;
39266;SDS011;24967;51.154;13.812;2023-07-08T10:53:31;2.80;;;2.60;;
39266;SDS011;24967;51.154;13.812;2023-07-08T10:56:12;2.72;;;2.53;;
39266;SDS011;24967;51.154;13.812;2023-07-08T10:59:04;2.63;;;2.42;;
39266;SDS011;24967;51.154;13.812;2023-07-08T11:01:40;3.17;;;2.50;;
39266;SDS011;24967;51.154;13.812;2023-07-08T11:04:26;2.58;;;2.40;;
39266;SDS011;24967;51.154;13.812;2023-07-08T11:07:04;2.80;;;2.60;;
39266;SDS011;24967;51.154;13.812;2023-07-08T11:09:39;2.53;;;2.42;;
39266;SDS011;24967;51.154;13.812;2023-07-08T11:12:15;2.40;;;2.30;;
39266;SDS011;24967;51.154;13.812;2023-07-08T11:14:50;2.40;;;2.30;;
39266;SDS011;24967;51.154;13.812;2023-07-08T11:17:22;2.67;;;2.55;;
39266;SDS011;24967;51.154;13.812;2023-07-08T11:19:53;4.40;;;2.63;;
39266;SDS011;24967;51.154;13.812;2023-07-08T11:22:23;2.92;;;2.67;;
39266;SDS011;24967;51.154;13.812;2023-07-08T11:24:52;2.85;;;2.40;;
39266;SDS011;24967;51.154;13.812;2023-07-08T11:27:24;3.03;;;2.50;;
39266;SDS011;24967;51.154;13.812;2023-07-08T11:29:54;2.55;;;2.45;;
39266;SDS011;24967;51.154;13.812;2023-07-08T11:34:52;2.38;;;2.22;;
39266;SDS011;24967;51.154;13.812;2023-07-08T11:37:21;2.73;;;2.50;;
39266;SDS011;24967;51.154;13.812;2023-07-08T11:39:53;2.85;;;2.65;;
39266;SDS011;24967;51.154;13.812;2023-07-08T11:42:21;2.70;;;2.50;;
39266;SDS011;24967;51.154;13.812;2023-07-08T11:44:56;3.17;;;2.65;;
39266;SDS011;24967;51.154;13.812;2023-07-08T11:47:24;2.78;;;2.53;;
39266;SDS011;24967;51.154;13.812;2023-07-08T11:49:52;2.83;;;2.72;;
39266;SDS011;24967;51.154;13.812;2023-07-08T11:52:21;2.70;;;2.50;;
39266;SDS011;24967;51.154;13.812;2023-07-08T11:54:55;3.47;;;2.63;;
39266;SDS011;24967;51.154;13.812;2023-07-08T11:57:28;2.88;;;2.70;;
39266;SDS011;24967;51.154;13.812;2023-07-08T12:00:06;2.63;;;2.50;;
39266;SDS011;24967;51.154;13.812;2023-07-08T12:02:47;2.67;;;2.50;;
39266;SDS011;24967;51.154;13.812;2023-07-08T12:05:16;3.03;;;2.72;;
39266;SDS011;24967;51.154;13.812;2023-07-08T12:07:44;2.60;;;2.40;;
39266;SDS011;24967;51.154;13.812;2023-07-08T12:10:15;2.50;;;2.40;;
39266;SDS011;24967;51.154;13.812;2023-07-08T12:12:46;2.78;;;2.58;;
39266;SDS011;24967;51.154;13.812;2023-07-08T12:15:14;2.50;;;2.40;;
39266;SDS011;24967;51.154;13.812;2023-07-08T12:17:44;3.20;;;2.85;;
39266;SDS011;24967;51.154;13.812;2023-07-08T12:20:17;2.80;;;2.60;;
39266;SDS011;24967;51.154;13.812;2023-07-08T12:22:47;3.08;;;2.88;;
39266;SDS011;24967;51.154;13.812;2023-07-08T12:25:17;2.83;;;2.63;;
39266;SDS011;24967;51.154;13.812;2023-07-08T12:30:14;2.97;;;2.50;;
39266;SDS011;24967;51.154;13.812;2023-07-08T12:32:42;3.33;;;3.03;;
39266;SDS011;24967;51.154;13.812;2023-07-08T12:35:14;3.03;;;2.70;;
39266;SDS011;24967;51.154;13.812;2023-07-08T12:37:47;3.28;;;2.78;;
39266;SDS011;24967;51.154;13.812;2023-07-08T12:40:13;2.85;;;2.63;;
39266;SDS011;24967;51.154;13.812;2023-07-08T12:42:41;3.13;;;2.83;;
39266;SDS011;24967;51.154;13.812;2023-07-08T12:45:13;4.35;;;2.90;;
39266;SDS011;24967;51.154;13.812;2023-07-08T12:47:44;3.13;;;2.53;;
39266;SDS011;24967;51.154;13.812;2023-07-08T12:50:11;3.92;;;2.50;;
39266;SDS011;24967;51.154;13.812;2023-07-08T12:52:38;2.92;;;2.80;;
39266;SDS011;24967;51.154;13.812;2023-07-08T12:55:07;2.78;;;2.58;;
39266;SDS011;24967;51.154;13.812;2023-07-08T12:57:34;2.95;;;2.75;;
39266;SDS011;24967;51.154;13.812;2023-07-08T13:00:01;2.85;;;2.58;;
39266;SDS011;24967;51.154;13.812;2023-07-08T13:02:30;2.38;;;2.17;;
39266;SDS011;24967;51.154;13.812;2023-07-08T13:04:59;4.60;;;3.00;;
39266;SDS011;24967;51.154;13.812;2023-07-08T13:07:31;2.35;;;2.17;;
39266;SDS011;24967;51.154;13.812;2023-07-08T13:10:02;2.80;;;2.60;;
39266;SDS011;24967;51.154;13.812;2023-07-08T13:12:30;2.72;;;2.53;;
39266;SDS011;24967;51.154;13.812;2023-07-08T13:17:26;2.72;;;2.53;;
39266;SDS011;24967;51.154;13.812;2023-07-08T13:19:54;2.72;;;2.50;;
39266;SDS011;24967;51.154;13.812;2023-07-08T13:22:22;3.05;;;2.90;;
39266;SDS011;24967;51.154;13.812;2023-07-08T13:24:58;3.45;;;2.95;;
39266;SDS011;24967;51.154;13.812;2023-07-08T13:27:25;3.00;;;2.80;;
39266;SDS011;24967;51.154;13.812;2023-07-08T13:29:52;4.30;;;2.60;;
39266;SDS011;24967;51.154;13.812;2023-07-08T13:32:20;2.50;;;2.30;;
39266;SDS011;24967;51.154;13.812;2023-07-08T13:34:56;30.67;;;3.60;;
39266;SDS011;24967;51.154;13.812;2023-07-08T13:37:22;3.55;;;2.80;;
39266;SDS011;24967;51.154;13.812;2023-07-08T13:39:51;2.90;;;2.70;;
39266;SDS011;24967;51.154;13.812;2023-07-08T13:42:19;2.75;;;2.65;;
39266;SDS011;24967;51.154;13.812;2023-07-08T13:44:46;2.80;;;2.45;;
39266;SDS011;24967;51.154;13.812;2023-07-08T13:47:19;2.80;;;2.60;;
39266;SDS011;24967;51.154;13.812;2023-07-08T13:49:47;4.70;;;2.60;;
39266;SDS011;24967;51.154;13.812;2023-07-08T13:57:16;2.38;;;2.28;;
39266;SDS011;24967;51.154;13.812;2023-07-08T13:59:44;3.10;;;2.80;;
39266;SDS011;24967;51.154;13.812;2023-07-08T14:02:14;2.50;;;2.30;;
39266;SDS011;24967;51.154;13.812;2023-07-08T14:04:43;2.70;;;2.50;;
39266;SDS011;24967;51.154;13.812;2023-07-08T14:07:12;2.80;;;2.60;;
39266;SDS011;24967;51.154;13.812;2023-07-08T14:09:43;2.92;;;2.63;;
39266;SDS011;24967;51.154;13.812;2023-07-08T14:12:09;3.13;;;2.92;;
39266;SDS011;24967;51.154;13.812;2023-07-08T14:14:36;3.80;;;3.25;;
39266;SDS011;24967;51.154;13.812;2023-07-08T14:17:02;2.72;;;2.53;;
39266;SDS011;24967;51.154;13.812;2023-07-08T14:19:30;2.90;;;2.70;;
39266;SDS011;24967;51.154;13.812;2023-07-08T14:22:00;2.95;;;2.75;;
39266;SDS011;24967;51.154;13.812;2023-07-08T14:24:28;3.20;;;2.57;;
39266;SDS011;24967;51.154;13.812;2023-07-08T14:26:55;4.72;;;3.28;;
39266;SDS011;24967;51.154;13.812;2023-07-08T14:29:22;6.13;;;3.10;;
39266;SDS011;24967;51.154;13.812;2023-07-08T14:31:48;2.70;;;2.60;;
39266;SDS011;24967;51.154;13.812;2023-07-08T14:34:16;3.22;;;2.92;;
39266;SDS011;24967;51.154;13.812;2023-07-08T14:36:46;2.75;;;2.58;;
39266;SDS011;24967;51.154;13.812;2023-07-08T14:39:13;4.78;;;2.90;;
39266;SDS011;24967;51.154;13.812;2023-07-08T14:41:42;2.90;;;2.70;;
39266;SDS011;24967;51.154;13.812;2023-07-08T14:44:17;2.90;;;2.70;;
39266;SDS011;24967;51.154;13.812;2023-07-08T14:46:46;3.00;;;2.70;;
39266;SDS011;24967;51.154;13.812;2023-07-08T14:49:15;2.92;;;2.83;;
39266;SDS011;24967;51.154;13.812;2023-07-08T14:51:44;3.53;;;2.78;;
39266;SDS011;24967;51.154;13.812;2023-07-08T14:54:10;3.00;;;2.80;;
39266;SDS011;24967;51.154;13.812;2023-07-08T14:56:37;2.80;;;2.67;;
39266;SDS011;24967;51.154;13.812;2023-07-08T14:59:04;2.55;;;2.22;;
39266;SDS011;24967;51.154;13.812;2023-07-08T15:01:32;2.80;;;2.60;;
39266;SDS011;24967;51.154;13.812;2023-07-08T15:03:58;3.05;;;2.85;;
39266;SDS011;24967;51.154;13.812;2023-07-08T15:06:25;3.08;;;2.80;;
39266;SDS011;24967;51.154;13.812;2023-07-08T15:08:51;3.25;;;2.95;;
39266;SDS011;24967;51.154;13.812;2023-07-08T15:11:18;3.10;;;3.00;;
39266;SDS011;24967;51.154;13.812;2023-07-08T15:13:46;4.55;;;2.97;;
39266;SDS011;24967;51.154;13.812;2023-07-08T15:16:13;3.08;;;2.78;;
39266;SDS011;24967;51.154;13.812;2023-07-08T15:18:43;3.25;;;2.95;;
39266;SDS011;24967;51.154;13.812;2023-07-08T15:21:10;3.17;;;2.88;;
39266;SDS011;24967;51.154;13.812;2023-07-08T15:23:37;2.88;;;2.70;;
39266;SDS011;24967;51.154;13.812;2023-07-08T15:26:04;3.35;;;3.05;;
39266;SDS011;24967;51.154;13.812;2023-07-08T15:28:38;2.63;;;2.42;;
39266;SDS011;24967;51.154;13.812;2023-07-08T15:31:07;3.05;;;2.80;;
39266;SDS011;24967;51.154;13.812;2023-07-08T15:33:35;3.20;;;3.00;;
39266;SDS011;24967;51.154;13.812;2023-07-08T15:36:03;2.53;;;2.17;;
39266;SDS011;24967;51.154;13.812;2023-07-08T15:38:30;2.80;;;2.60;;
39266;SDS011;24967;51.154;13.812;2023-07-08T15:40:56;4.32;;;3.83;;
39266;SDS011;24967;51.154;13.812;2023-07-08T15:43:23;3.33;;;3.03;;
39266;SDS011;24967;51.154;13.812;2023-07-08T15:45:49;2.60;;;2.50;;
39266;SDS011;24967;51.154;13.812;2023-07-08T15:48:16;2.92;;;2.70;;
39266;SDS011;24967;51.154;13.812;2023-07-08T15:50:44;2.83;;;2.70;;
39266;SDS011;24967;51.154;13.812;2023-07-08T15:53:13;2.65;;;2.45;;
39266;SDS011;24967;51.154;13.812;2023-07-08T15:55:42;4.15;;;2.75;;
39266;SDS011;24967;51.154;13.812;2023-07-08T15:58:12;3.97;;;2.60;;
39266;SDS011;24967;51.154;13.812;2023-07-08T16:00:44;3.08;;;2.72;;
39266;SDS011;24967;51.154;13.812;2023-07-08T16:03:12;2.80;;;2.60;;
39266;SDS011;24967;51.154;13.812;2023-07-08T16:05:42;3.45;;;3.25;;
39266;SDS011;24967;51.154;13.812;2023-07-08T16:08:09;2.78;;;2.42;;
39266;SDS011;24967;51.154;13.812;2023-07-08T16:10:51;2.60;;;2.40;;
39266;SDS011;24967;51.154;13.812;2023-07-08T16:13:22;2.90;;;2.70;;
39266;SDS011;24967;51.154;13.812;2023-07-08T16:15:51;2.92;;;2.72;;